createdAt,value
2018-05-21T00:02:34.858Z,14.16
2018-05-21T00:07:28.152Z,14.09
2018-05-21T00:12:21.460Z,13.75
2018-05-21T00:17:14.752Z,13.82
2018-05-21T00:22:08.806Z,13.91
2018-05-21T00:27:02.868Z,13.78
2018-05-21T00:31:56.164Z,13.62
2018-05-21T00:36:49.458Z,13.64
2018-05-21T00:41:42.744Z,13.39
2018-05-21T00:46:36.051Z,13.45
2018-05-21T00:51:30.109Z,13.44
2018-05-21T00:56:23.422Z,13.34
2018-05-21T01:01:16.703Z,13.14
2018-05-21T01:06:10.790Z,13.37
2018-05-21T01:11:04.131Z,13.43
2018-05-21T01:15:57.429Z,13.21
2018-05-21T01:20:50.729Z,13.21
2018-05-21T01:25:44.791Z,13.27
2018-05-21T01:30:38.084Z,13.15
2018-05-21T01:35:31.445Z,13.16
2018-05-21T01:40:24.776Z,12.98
2018-05-21T01:45:18.098Z,12.89
2018-05-21T01:50:11.456Z,12.92
2018-05-21T01:55:05.547Z,12.69
2018-05-21T01:59:58.873Z,12.72
2018-05-21T02:04:52.155Z,12.63
2018-05-21T02:09:46.226Z,12.55
2018-05-21T02:14:39.522Z,12.85
2018-05-21T02:19:33.827Z,12.86
2018-05-21T02:24:27.127Z,12.70
2018-05-21T02:29:20.421Z,12.45
2018-05-21T02:34:13.724Z,12.74
2018-05-21T02:39:07.035Z,12.64
2018-05-21T02:44:01.099Z,12.55
2018-05-21T02:48:54.415Z,12.58
2018-05-21T02:53:48.479Z,12.74
2018-05-21T02:58:41.774Z,12.79
2018-05-21T03:03:35.081Z,12.63
2018-05-21T03:08:28.389Z,12.53
2018-05-21T03:13:21.684Z,12.46
2018-05-21T03:18:14.967Z,12.53
2018-05-21T03:23:08.282Z,12.51
2018-05-21T03:28:01.596Z,12.54
2018-05-21T03:32:54.901Z,12.44
2018-05-21T03:37:48.202Z,12.56
2018-05-21T03:42:42.264Z,12.64
2018-05-21T03:47:35.568Z,12.79
2018-05-21T03:52:29.642Z,12.77
2018-05-21T03:57:22.957Z,12.78
2018-05-21T04:02:33.806Z,12.88
2018-05-21T04:07:27.087Z,12.90
2018-05-21T04:12:20.387Z,13.02
2018-05-21T04:17:14.456Z,13.10
2018-05-21T04:22:07.761Z,13.29
2018-05-21T04:27:01.815Z,13.45
2018-05-21T04:31:55.141Z,13.62
2018-05-21T04:36:48.439Z,13.79
2018-05-21T04:41:42.591Z,14.36
2018-05-21T04:46:36.752Z,14.68
2018-05-21T04:51:30.088Z,15.27
2018-05-21T04:56:23.387Z,15.77
2018-05-21T05:01:16.689Z,16.05
2018-05-21T05:06:10.499Z,16.35
2018-05-21T05:11:03.802Z,16.54
2018-05-21T05:15:57.111Z,16.60
2018-05-21T05:20:50.408Z,16.87
2018-05-21T05:25:43.715Z,16.87
2018-05-21T05:30:37.022Z,17.12
2018-05-21T05:35:30.329Z,17.02
2018-05-21T05:40:23.630Z,16.64
2018-05-21T05:45:16.936Z,16.91
2018-05-21T05:50:10.247Z,16.73
2018-05-21T05:55:03.548Z,16.57
2018-05-21T05:59:56.844Z,16.35
2018-05-21T06:04:50.159Z,16.15
2018-05-21T06:09:43.445Z,16.07
2018-05-21T06:14:36.735Z,16.07
2018-05-21T06:19:30.055Z,16.16
2018-05-21T06:24:23.363Z,16.29
2018-05-21T06:29:16.683Z,16.42
2018-05-21T06:34:10.123Z,16.60
2018-05-21T06:39:04.062Z,16.84
2018-05-21T06:43:57.381Z,17.06
2018-05-21T06:48:51.439Z,17.50
2018-05-21T06:53:44.742Z,17.74
2018-05-21T06:58:38.818Z,18.01
2018-05-21T07:03:32.123Z,18.36
2018-05-21T07:08:25.441Z,18.55
2018-05-21T07:13:18.739Z,18.94
2018-05-21T07:18:12.112Z,19.29
2018-05-21T07:23:06.125Z,19.60
2018-05-21T07:27:59.421Z,20.07
2018-05-21T07:32:53.515Z,20.63
2018-05-21T07:37:47.600Z,20.38
2018-05-21T07:42:41.678Z,20.00
2018-05-21T07:47:34.995Z,19.91
2018-05-21T07:52:28.458Z,20.38
2018-05-21T07:57:21.799Z,20.35
2018-05-21T08:02:15.098Z,20.37
2018-05-21T08:07:08.563Z,20.38
2018-05-21T08:12:01.880Z,20.75
2018-05-21T08:16:55.968Z,21.03
2018-05-21T08:21:50.084Z,21.07
2018-05-21T08:26:43.427Z,21.22
2018-05-21T08:31:36.760Z,21.74
2018-05-21T08:36:30.863Z,21.89
2018-05-21T08:41:24.190Z,21.98
2018-05-21T08:46:22.297Z,21.89
2018-05-21T08:51:15.615Z,21.76
2018-05-21T08:56:08.915Z,22.37
2018-05-21T09:01:02.223Z,22.14
2018-05-21T09:05:56.279Z,22.51
2018-05-21T09:10:49.585Z,22.06
2018-05-21T09:15:42.884Z,22.05
2018-05-21T09:20:36.183Z,21.87
2018-05-21T09:25:29.480Z,22.54
2018-05-21T09:30:22.789Z,23.07
2018-05-21T09:35:16.875Z,23.46
2018-05-21T09:40:10.942Z,23.10
2018-05-21T09:45:04.246Z,23.84
2018-05-21T09:49:57.556Z,23.59
2018-05-21T09:54:50.879Z,23.76
2018-05-21T09:59:44.191Z,23.44
2018-05-21T10:04:38.281Z,24.00
2018-05-21T10:09:32.340Z,24.30
2018-05-21T10:14:25.677Z,24.30
2018-05-21T10:19:21.630Z,24.67
2018-05-21T10:24:14.943Z,24.34
2018-05-21T10:29:08.267Z,24.15
2018-05-21T10:34:02.426Z,24.16
2018-05-21T10:38:55.731Z,24.00
2018-05-21T10:43:50.147Z,24.06
2018-05-21T10:48:43.556Z,24.22
2018-05-21T10:53:36.859Z,24.44
2018-05-21T10:58:30.171Z,24.39
2018-05-21T11:03:23.477Z,24.90
2018-05-21T11:08:16.779Z,25.33
2018-05-21T11:13:10.068Z,25.44
2018-05-21T11:18:03.396Z,25.44
2018-05-21T11:22:56.739Z,25.34
2018-05-21T11:27:50.856Z,25.43
2018-05-21T11:32:45.771Z,25.81
2018-05-21T11:37:39.087Z,26.10
2018-05-21T11:42:32.429Z,25.72
2018-05-21T11:47:32.110Z,25.69
2018-05-21T11:52:25.424Z,25.54
2018-05-21T11:57:18.741Z,25.85
2018-05-21T12:02:12.053Z,25.79
2018-05-21T12:07:05.354Z,25.92
2018-05-21T12:11:59.510Z,25.90
2018-05-21T12:16:52.820Z,25.79
2018-05-21T12:21:47.157Z,25.43
2018-05-21T12:26:40.487Z,25.30
2018-05-21T12:31:33.792Z,25.38
2018-05-21T12:36:27.092Z,25.39
2018-05-21T12:41:20.406Z,25.29
2018-05-21T12:46:13.716Z,25.14
2018-05-21T12:51:07.954Z,25.29
2018-05-21T12:56:01.280Z,25.37
2018-05-21T13:00:55.332Z,25.09
2018-05-21T13:05:48.647Z,25.13
2018-05-21T13:10:42.711Z,24.97
2018-05-21T13:15:36.017Z,25.12
2018-05-21T13:20:30.118Z,24.90
2018-05-21T13:25:24.188Z,24.93
2018-05-21T13:30:17.534Z,24.94
2018-05-21T13:35:10.841Z,24.82
2018-05-21T13:40:04.171Z,24.93
2018-05-21T13:44:58.250Z,25.17
2018-05-21T13:49:52.367Z,25.17
2018-05-21T13:54:45.668Z,25.17
2018-05-21T13:59:38.987Z,25.07
2018-05-21T14:04:33.084Z,25.13
2018-05-21T14:09:27.187Z,25.04
2018-05-21T14:14:21.285Z,25.05
2018-05-21T14:19:15.382Z,24.98
2018-05-21T14:24:09.461Z,25.12
2018-05-21T14:29:02.797Z,25.45
2018-05-21T14:33:56.083Z,25.45
2018-05-21T14:38:49.385Z,25.43
2018-05-21T14:43:42.725Z,25.38
2018-05-21T14:48:36.014Z,25.16
2018-05-21T14:53:29.304Z,25.48
2018-05-21T14:58:22.628Z,25.29
2018-05-21T15:03:15.963Z,25.26
2018-05-21T15:08:09.277Z,25.02
2018-05-21T15:13:03.335Z,24.95
2018-05-21T15:17:56.647Z,25.22
2018-05-21T15:22:50.724Z,25.28
2018-05-21T15:27:44.018Z,25.22
2018-05-21T15:32:37.311Z,25.20
2018-05-21T15:37:30.632Z,25.30
2018-05-21T15:42:23.924Z,25.33
2018-05-21T15:47:17.305Z,24.94
2018-05-21T15:52:10.593Z,24.51
2018-05-21T15:57:04.702Z,24.08
2018-05-21T16:01:58.027Z,23.80
2018-05-21T16:06:51.311Z,23.81
2018-05-21T16:11:44.619Z,23.79
2018-05-21T16:16:38.700Z,23.57
2018-05-21T16:21:31.996Z,23.46
2018-05-21T16:26:25.316Z,23.37
2018-05-21T16:31:18.655Z,23.48
2018-05-21T16:36:11.979Z,23.39
2018-05-21T16:41:05.319Z,23.24
2018-05-21T16:45:58.639Z,23.14
2018-05-21T16:50:52.033Z,23.00
2018-05-21T16:55:45.416Z,22.78
2018-05-21T17:00:38.726Z,22.60
2018-05-21T17:05:32.039Z,22.45
2018-05-21T17:10:25.340Z,22.34
2018-05-21T17:15:19.639Z,22.03
2018-05-21T17:20:12.956Z,22.17
2018-05-21T17:25:07.015Z,22.21
2018-05-21T17:30:00.330Z,22.32
2018-05-21T17:34:59.599Z,22.30
2018-05-21T17:39:52.920Z,22.24
2018-05-21T17:44:47.151Z,22.29
2018-05-21T17:49:40.444Z,22.28
2018-05-21T17:54:33.750Z,22.32
2018-05-21T17:59:27.839Z,22.31
2018-05-21T18:04:21.148Z,21.96
2018-05-21T18:09:14.492Z,21.57
2018-05-21T18:14:07.844Z,21.57
2018-05-21T18:19:01.162Z,21.79
2018-05-21T18:23:54.468Z,21.81
2018-05-21T18:28:47.780Z,21.77
2018-05-21T18:33:42.067Z,21.60
2018-05-21T18:38:36.140Z,21.41
2018-05-21T18:43:29.442Z,21.35
2018-05-21T18:48:22.750Z,21.31
2018-05-21T18:53:18.588Z,21.22
2018-05-21T18:58:12.031Z,21.24
2018-05-21T19:03:06.212Z,21.27
2018-05-21T19:07:59.519Z,21.11
2018-05-21T19:12:52.844Z,20.73
2018-05-21T19:17:46.908Z,20.85
2018-05-21T19:22:40.203Z,20.75
2018-05-21T19:27:33.496Z,20.54
2018-05-21T19:32:27.561Z,20.47
2018-05-21T19:37:20.854Z,20.26
2018-05-21T19:42:14.195Z,20.20
2018-05-21T19:47:07.564Z,20.09
2018-05-21T19:52:00.959Z,20.14
2018-05-21T19:56:54.259Z,20.08
2018-05-21T20:01:47.660Z,20.13
2018-05-21T20:06:41.765Z,20.02
2018-05-21T20:11:35.852Z,19.72
2018-05-21T20:16:29.912Z,19.52
2018-05-21T20:21:23.227Z,19.49
2018-05-21T20:26:17.305Z,19.39
2018-05-21T20:31:11.394Z,19.31
2018-05-21T20:36:04.700Z,19.05
2018-05-21T20:40:58.771Z,18.93
2018-05-21T20:45:52.094Z,18.77
2018-05-21T20:50:45.384Z,18.79
2018-05-21T20:55:39.472Z,18.58
2018-05-21T21:00:33.682Z,18.51
2018-05-21T21:05:26.994Z,18.30
2018-05-21T21:10:21.077Z,18.26
2018-05-21T21:15:14.390Z,18.29
2018-05-21T21:20:08.444Z,17.76
2018-05-21T21:25:01.756Z,17.46
2018-05-21T21:29:55.828Z,17.47
2018-05-21T21:34:49.132Z,17.58
2018-05-21T21:39:42.448Z,17.60
2018-05-21T21:44:35.788Z,17.57
2018-05-21T21:49:29.126Z,17.24
2018-05-21T21:54:22.403Z,17.07
2018-05-21T21:59:15.723Z,16.82
2018-05-21T22:04:09.023Z,16.82
2018-05-21T22:09:02.327Z,16.55
2018-05-21T22:13:55.623Z,16.66
2018-05-21T22:18:48.927Z,16.61
2018-05-21T22:23:42.988Z,16.52
2018-05-21T22:28:36.278Z,16.32
2018-05-21T22:33:30.363Z,16.21
2018-05-21T22:38:23.658Z,16.20
2018-05-21T22:43:17.749Z,16.26
2018-05-21T22:48:11.810Z,16.09
2018-05-21T22:53:05.132Z,15.94
2018-05-21T22:57:58.399Z,15.82
2018-05-21T23:02:52.408Z,15.72
2018-05-21T23:07:46.483Z,15.44
2018-05-21T23:12:40.540Z,15.63
2018-05-21T23:17:34.023Z,15.74
2018-05-21T23:22:44.755Z,15.54
2018-05-21T23:27:38.864Z,15.46
2018-05-21T23:32:32.149Z,15.29
2018-05-21T23:37:25.446Z,15.22
2018-05-21T23:42:18.744Z,15.32
2018-05-21T23:47:12.034Z,15.28
2018-05-21T23:52:05.344Z,15.23
2018-05-21T23:56:58.690Z,15.06
